Time;durP1;ratioP1;P1;durP2;ratioP2;P2;SDS_P1;SDS_P2;PMS_P1;PMS_P2;Temp;Humidity;BMP_temperature;BMP_pressure;BME280_temperature;BME280_humidity;BME280_pressure;Samples;Min_cycle;Max_cycle;Signal;HPM_P1;HPM_P2
2024/03/06 00:01:44;;;;;;;14.10;11.83;;;9.50;99.90;;;;;;5055412;28;20465;-56
2024/03/06 00:04:11;;;;;;;13.97;12.23;;;9.40;99.90;;;;;;5055809;28;20532;-56
2024/03/06 00:06:38;;;;;;;12.90;11.50;;;9.40;99.90;;;;;;5055419;28;20446;-56
2024/03/06 00:09:08;;;;;;;15.60;11.87;;;9.40;99.90;;;;;;5055148;28;20455;-56
2024/03/06 00:11:36;;;;;;;14.43;12.57;;;9.40;99.90;;;;;;5054897;28;20895;-56
2024/03/06 00:14:05;;;;;;;17.67;12.30;;;9.30;99.90;;;;;;5054582;28;20465;-56
2024/03/06 00:16:31;;;;;;;17.20;13.03;;;9.30;99.90;;;;;;5054885;28;20536;-56
2024/03/06 00:18:58;;;;;;;17.90;14.10;;;9.30;99.90;;;;;;5054413;28;20446;-56
2024/03/06 00:21:25;;;;;;;18.97;13.70;;;9.30;99.90;;;;;;5054714;28;20452;-56
2024/03/06 00:23:52;;;;;;;15.00;12.27;;;9.20;99.90;;;;;;5054987;28;20469;-56
2024/03/06 00:26:20;;;;;;;15.53;10.90;;;9.10;99.90;;;;;;5053791;28;20824;-56
2024/03/06 00:28:47;;;;;;;14.47;11.33;;;9.10;99.90;;;;;;5054070;28;20441;-56
2024/03/06 00:31:14;;;;;;;15.13;11.80;;;9.00;99.90;;;;;;5054250;28;20438;-56
2024/03/06 00:33:41;;;;;;;12.20;10.70;;;8.90;99.90;;;;;;5053724;28;21017;-56
2024/03/06 00:36:08;;;;;;;12.40;10.60;;;8.90;99.90;;;;;;5053889;28;20451;-56
2024/03/06 00:38:35;;;;;;;12.67;11.20;;;8.90;99.90;;;;;;5053708;28;20962;-56
2024/03/06 00:41:02;;;;;;;12.20;10.17;;;8.80;99.90;;;;;;5053802;28;20485;-56
2024/03/06 00:43:29;;;;;;;12.60;11.00;;;8.80;99.90;;;;;;5053761;28;20445;-56
2024/03/06 00:45:56;;;;;;;11.07;10.03;;;8.80;99.90;;;;;;5053584;28;20457;-55
2024/03/06 00:48:23;;;;;;;13.53;11.60;;;8.80;99.90;;;;;;5053731;28;20448;-55
2024/03/06 00:50:50;;;;;;;11.10;9.97;;;8.90;99.90;;;;;;5053602;28;20442;-55
2024/03/06 00:53:16;;;;;;;11.53;10.33;;;8.90;99.90;;;;;;5053279;28;20475;-56
2024/03/06 00:55:43;;;;;;;11.57;10.37;;;8.90;99.90;;;;;;5053726;28;20434;-56
2024/03/06 00:58:10;;;;;;;15.10;10.80;;;8.80;99.90;;;;;;5053122;28;20449;-56
2024/03/06 01:00:39;;;;;;;16.57;11.13;;;8.90;99.90;;;;;;5053081;28;20852;-56
2024/03/06 01:03:06;;;;;;;17.73;12.03;;;8.80;99.90;;;;;;5053445;28;20450;-56
2024/03/06 01:05:33;;;;;;;24.27;14.30;;;8.80;99.90;;;;;;5052549;28;20468;-56
2024/03/06 01:08:00;;;;;;;19.90;13.87;;;8.80;99.90;;;;;;5053231;28;20446;-55
2024/03/06 01:10:26;;;;;;;22.77;15.60;;;8.90;99.90;;;;;;5052946;28;20445;-56
2024/03/06 01:12:53;;;;;;;24.43;17.50;;;8.90;99.90;;;;;;5052956;28;20455;-56
2024/03/06 01:15:20;;;;;;;33.53;16.60;;;8.90;99.90;;;;;;5053130;28;20869;-55
2024/03/06 01:17:49;;;;;;;19.90;14.57;;;8.90;99.90;;;;;;5053205;28;20441;-55
2024/03/06 01:20:16;;;;;;;21.00;16.10;;;9.00;99.90;;;;;;5053163;28;20481;-56
2024/03/06 01:22:43;;;;;;;21.17;15.73;;;9.00;99.90;;;;;;5053210;28;20448;-55
2024/03/06 01:25:09;;;;;;;22.73;16.67;;;9.00;99.90;;;;;;5052729;28;20469;-55
2024/03/06 01:27:36;;;;;;;21.80;16.87;;;9.00;99.90;;;;;;5053185;28;20463;-56
2024/03/06 01:30:04;;;;;;;20.20;15.60;;;9.00;99.90;;;;;;5053110;28;20450;-56
2024/03/06 01:32:31;;;;;;;21.60;16.70;;;9.10;99.90;;;;;;5052636;28;20971;-55
2024/03/06 01:34:59;;;;;;;20.03;14.90;;;9.10;99.90;;;;;;5052862;28;20492;-55
2024/03/06 01:37:26;;;;;;;22.20;16.20;;;9.10;99.90;;;;;;5053075;28;20445;-55
2024/03/06 01:39:52;;;;;;;22.30;17.20;;;9.10;99.90;;;;;;5052729;28;20489;-55
2024/03/06 01:42:19;;;;;;;21.97;16.53;;;9.10;99.90;;;;;;5053163;28;20446;-56
2024/03/06 01:44:46;;;;;;;21.30;14.97;;;9.10;99.90;;;;;;5052949;28;20465;-56
2024/03/06 01:47:13;;;;;;;21.40;16.50;;;9.10;99.90;;;;;;5052838;28;20441;-56
2024/03/06 01:49:40;;;;;;;20.70;15.70;;;9.10;99.90;;;;;;5052910;28;20846;-56
2024/03/06 01:52:11;;;;;;;19.70;14.60;;;9.10;99.90;;;;;;5052856;28;20445;-56
2024/03/06 01:54:38;;;;;;;20.40;15.20;;;9.10;99.90;;;;;;5052491;28;20473;-56
2024/03/06 01:57:07;;;;;;;21.10;15.70;;;9.10;99.90;;;;;;5052894;28;20449;-56
2024/03/06 01:59:34;;;;;;;20.57;15.43;;;9.10;99.90;;;;;;5052778;28;20446;-56
2024/03/06 02:02:02;;;;;;;19.13;14.03;;;9.00;99.90;;;;;;5052391;28;20815;-56
2024/03/06 02:04:30;;;;;;;21.00;15.53;;;9.00;99.90;;;;;;5052634;28;20470;-56
2024/03/06 02:06:57;;;;;;;21.30;14.97;;;9.00;99.90;;;;;;5053458;28;20450;-56
2024/03/06 02:09:25;;;;;;;21.97;15.87;;;8.90;99.90;;;;;;5052742;28;20457;-56
2024/03/06 02:11:52;;;;;;;21.03;15.20;;;8.90;99.90;;;;;;5052687;28;20441;-56
2024/03/06 02:14:19;;;;;;;21.17;16.07;;;8.80;99.90;;;;;;5052536;28;20465;-56
2024/03/06 02:16:46;;;;;;;25.77;16.90;;;8.80;99.90;;;;;;5055549;28;20449;-56
2024/03/06 02:19:13;;;;;;;24.97;15.40;;;8.80;99.90;;;;;;5056959;28;20444;-55
2024/03/06 02:21:42;;;;;;;31.10;16.83;;;8.80;99.90;;;;;;5056289;28;20517;-56
2024/03/06 02:24:11;;;;;;;30.33;17.97;;;8.80;99.90;;;;;;5055869;28;21015;-56
2024/03/06 02:26:38;;;;;;;28.50;19.50;;;8.70;99.90;;;;;;5056167;28;20473;-56
2024/03/06 02:29:05;;;;;;;26.77;18.20;;;8.70;99.90;;;;;;5056231;28;20441;-56
2024/03/06 02:31:33;;;;;;;28.57;18.93;;;8.70;99.90;;;;;;5056029;28;20448;-56
2024/03/06 02:34:02;;;;;;;34.07;18.77;;;8.60;99.90;;;;;;5056515;28;20473;-56
2024/03/06 02:36:29;;;;;;;30.40;18.80;;;8.60;99.90;;;;;;5055983;28;20449;-56
2024/03/06 02:38:57;;;;;;;29.10;17.77;;;8.60;99.90;;;;;;5055681;28;20889;-56
2024/03/06 02:41:24;;;;;;;29.80;18.23;;;8.50;99.90;;;;;;5055804;28;20488;-56
2024/03/06 02:43:51;;;;;;;33.27;20.43;;;8.50;99.90;;;;;;5055834;28;20461;-56
2024/03/06 02:46:18;;;;;;;31.73;20.77;;;8.50;99.90;;;;;;5056710;28;20472;-56
2024/03/06 02:48:45;;;;;;;35.43;19.67;;;8.50;99.90;;;;;;5055497;28;20481;-56
2024/03/06 02:51:12;;;;;;;36.07;19.97;;;8.50;99.90;;;;;;5055455;28;20966;-56
2024/03/06 02:53:39;;;;;;;33.70;19.20;;;8.40;99.90;;;;;;5055502;28;20478;-56
2024/03/06 02:56:07;;;;;;;33.33;18.43;;;8.40;99.90;;;;;;5055751;28;20432;-55
2024/03/06 02:58:36;;;;;;;22.80;16.33;;;8.40;99.90;;;;;;5055608;28;20441;-56
2024/03/06 03:01:03;;;;;;;26.67;18.50;;;8.30;99.90;;;;;;5055487;28;20841;-56
2024/03/06 03:03:30;;;;;;;21.13;14.63;;;8.30;99.90;;;;;;5055157;28;20971;-56
2024/03/06 03:05:57;;;;;;;21.40;15.30;;;8.20;99.90;;;;;;5055435;28;20485;-56
2024/03/06 03:08:24;;;;;;;27.53;15.00;;;8.20;99.90;;;;;;5055476;28;20826;-55
2024/03/06 03:10:51;;;;;;;22.67;15.83;;;8.20;99.90;;;;;;5055430;28;20441;-56
2024/03/06 03:13:19;;;;;;;34.83;14.53;;;8.10;99.90;;;;;;5054788;28;20818;-55
2024/03/06 03:15:47;;;;;;;23.77;14.03;;;8.10;99.90;;;;;;5055238;28;21019;-56
2024/03/06 03:18:13;;;;;;;21.30;15.40;;;8.10;99.90;;;;;;5055130;28;20449;-56
2024/03/06 03:20:40;;;;;;;25.50;16.70;;;8.10;99.90;;;;;;5055039;28;20999;-56
2024/03/06 03:23:11;;;;;;;23.30;14.93;;;8.10;99.90;;;;;;5055698;28;20480;-56
2024/03/06 03:25:38;;;;;;;20.07;14.30;;;8.10;99.90;;;;;;5056050;28;20466;-55
2024/03/06 03:28:05;;;;;;;20.20;13.70;;;8.00;99.90;;;;;;5055218;28;20445;-56
2024/03/06 03:30:33;;;;;;;31.57;16.37;;;8.00;99.90;;;;;;5055488;28;20433;-56
2024/03/06 03:33:00;;;;;;;22.10;14.53;;;8.00;99.90;;;;;;5055293;28;20536;-56
2024/03/06 03:35:27;;;;;;;25.37;13.30;;;8.00;99.90;;;;;;5054994;28;20472;-56
2024/03/06 03:37:55;;;;;;;20.77;13.37;;;8.00;99.90;;;;;;5055105;28;20441;-56
2024/03/06 03:40:22;;;;;;;19.13;12.20;;;8.00;99.90;;;;;;5054980;28;20513;-55
2024/03/06 03:42:49;;;;;;;20.27;13.03;;;7.90;99.90;;;;;;5054873;28;20447;-56
2024/03/06 03:45:16;;;;;;;20.17;12.80;;;7.90;99.90;;;;;;5054908;28;20470;-55
2024/03/06 03:47:45;;;;;;;23.70;12.70;;;7.90;99.90;;;;;;5055062;28;20460;-55
2024/03/06 03:50:12;;;;;;;24.40;13.23;;;7.90;99.90;;;;;;5054686;28;20445;-55
2024/03/06 03:52:41;;;;;;;22.20;12.43;;;7.80;99.90;;;;;;5054726;28;20445;-55
2024/03/06 03:55:08;;;;;;;19.63;12.63;;;7.80;99.90;;;;;;5054185;28;20864;-55
2024/03/06 03:57:35;;;;;;;26.47;12.80;;;7.80;99.90;;;;;;5054380;28;20827;-55
2024/03/06 04:00:02;;;;;;;17.20;12.20;;;7.80;99.90;;;;;;5054423;28;20446;-55
2024/03/06 04:02:29;;;;;;;20.10;12.80;;;7.80;99.90;;;;;;5054289;28;20457;-55
2024/03/06 04:04:57;;;;;;;16.67;12.43;;;7.80;99.90;;;;;;5054333;28;20987;-55
2024/03/06 04:07:24;;;;;;;19.03;12.97;;;7.70;99.90;;;;;;5054389;28;20445;-55
2024/03/06 04:09:51;;;;;;;20.10;11.70;;;7.70;99.90;;;;;;5054265;28;20445;-55
2024/03/06 04:12:18;;;;;;;14.03;10.70;;;7.70;99.90;;;;;;5054342;28;20430;-56
2024/03/06 04:14:47;;;;;;;18.07;11.60;;;7.70;99.90;;;;;;5054217;28;20504;-56
2024/03/06 04:17:14;;;;;;;21.30;12.33;;;7.70;99.90;;;;;;5054232;28;20434;-56
2024/03/06 04:19:40;;;;;;;16.63;11.93;;;7.80;99.90;;;;;;5054244;28;20445;-56
2024/03/06 04:22:09;;;;;;;23.63;12.50;;;7.80;99.90;;;;;;5054299;28;20489;-56
2024/03/06 04:24:35;;;;;;;20.37;12.60;;;7.80;99.90;;;;;;5054138;28;20492;-56
2024/03/06 04:27:02;;;;;;;23.60;13.13;;;7.70;99.90;;;;;;5054182;28;20441;-56
2024/03/06 04:29:29;;;;;;;14.67;11.23;;;7.70;99.90;;;;;;5054032;28;20452;-56
2024/03/06 04:31:56;;;;;;;27.83;13.53;;;7.80;99.90;;;;;;5053956;28;20448;-56
2024/03/06 04:34:23;;;;;;;20.00;13.00;;;7.80;99.90;;;;;;5053556;28;20469;-55
2024/03/06 04:36:50;;;;;;;16.30;12.10;;;7.80;99.90;;;;;;5053848;28;21046;-55
2024/03/06 04:39:18;;;;;;;25.27;14.33;;;7.80;99.90;;;;;;5052864;28;20528;-56
2024/03/06 04:41:45;;;;;;;17.93;12.40;;;7.80;99.90;;;;;;5053822;28;20482;-56
2024/03/06 04:44:11;;;;;;;28.60;15.03;;;7.80;99.90;;;;;;5053829;28;20457;-56
2024/03/06 04:46:38;;;;;;;25.73;14.27;;;7.80;99.90;;;;;;5053341;28;20453;-56
2024/03/06 04:49:05;;;;;;;26.30;12.43;;;7.80;99.90;;;;;;5053391;28;20446;-55
2024/03/06 04:51:32;;;;;;;24.70;12.00;;;7.80;99.90;;;;;;5053507;28;20448;-56
2024/03/06 04:53:59;;;;;;;18.07;12.47;;;7.70;99.90;;;;;;5053323;28;20484;-56
2024/03/06 04:56:27;;;;;;;18.90;12.90;;;7.70;99.90;;;;;;5053419;28;20533;-55
2024/03/06 04:58:54;;;;;;;15.27;11.43;;;7.70;99.90;;;;;;5053295;28;20451;-56
2024/03/06 05:01:21;;;;;;;22.97;11.60;;;7.70;99.90;;;;;;5053462;28;20494;-55
2024/03/06 05:03:49;;;;;;;20.87;13.00;;;7.70;99.90;;;;;;5053494;28;20484;-55
2024/03/06 05:06:16;;;;;;;19.27;13.13;;;7.70;99.90;;;;;;5053496;28;20449;-56
2024/03/06 05:08:43;;;;;;;24.30;13.17;;;7.70;99.90;;;;;;5053328;28;20441;-56
2024/03/06 05:11:10;;;;;;;16.57;11.43;;;7.80;99.90;;;;;;5053274;28;20524;-56
2024/03/06 05:13:38;;;;;;;19.77;11.97;;;7.80;99.90;;;;;;5053242;28;20523;-55
2024/03/06 05:16:05;;;;;;;16.67;12.40;;;7.80;99.90;;;;;;5053215;28;20520;-56
2024/03/06 05:18:34;;;;;;;16.67;11.30;;;7.80;99.90;;;;;;5053307;28;20450;-56
2024/03/06 05:21:00;;;;;;;18.93;12.40;;;7.80;99.90;;;;;;5053043;28;21076;-56
2024/03/06 05:23:28;;;;;;;16.50;10.90;;;7.90;99.90;;;;;;5053179;28;20456;-55
2024/03/06 05:25:54;;;;;;;15.73;10.13;;;7.90;99.90;;;;;;5053329;28;20450;-56
2024/03/06 05:28:21;;;;;;;19.00;8.80;;;7.90;99.90;;;;;;5053057;28;20453;-55
2024/03/06 05:30:49;;;;;;;13.93;7.90;;;7.90;99.90;;;;;;5052926;28;20819;-55
2024/03/06 05:33:16;;;;;;;9.53;6.80;;;7.90;99.90;;;;;;5053057;28;20519;-56
2024/03/06 05:35:43;;;;;;;8.53;6.50;;;7.90;99.90;;;;;;5053247;28;20455;-56
2024/03/06 05:38:10;;;;;;;10.13;6.67;;;7.80;99.90;;;;;;5052902;28;20449;-55
2024/03/06 05:40:39;;;;;;;15.03;7.83;;;7.80;99.90;;;;;;5053059;28;20541;-56
2024/03/06 05:43:06;;;;;;;13.63;10.50;;;7.80;99.90;;;;;;5052964;28;20485;-56
2024/03/06 05:45:32;;;;;;;11.10;8.00;;;7.80;99.90;;;;;;5052542;28;20457;-55
2024/03/06 05:48:01;;;;;;;14.00;8.70;;;7.80;99.90;;;;;;5052935;28;20477;-55
2024/03/06 05:50:28;;;;;;;12.90;8.70;;;7.80;99.90;;;;;;5053664;28;20486;-56
2024/03/06 05:52:55;;;;;;;13.30;7.40;;;7.80;99.90;;;;;;5057197;28;20504;-56
2024/03/06 05:55:21;;;;;;;9.40;6.53;;;7.80;99.90;;;;;;5056883;28;20479;-55
2024/03/06 05:57:49;;;;;;;9.00;6.10;;;7.90;99.90;;;;;;5057106;28;20825;-56
2024/03/06 06:00:18;;;;;;;9.03;6.23;;;7.80;99.90;;;;;;5056724;28;20442;-55
2024/03/06 06:02:45;;;;;;;8.70;6.40;;;7.90;99.90;;;;;;5056875;28;20495;-55
2024/03/06 06:05:14;;;;;;;10.10;6.10;;;7.90;99.90;;;;;;5056422;28;20470;-55
2024/03/06 06:07:41;;;;;;;8.10;6.50;;;7.90;99.90;;;;;;5056720;28;20457;-56
2024/03/06 06:10:09;;;;;;;10.73;6.50;;;7.90;99.90;;;;;;5056436;28;20445;-56
2024/03/06 06:12:36;;;;;;;8.70;7.33;;;7.90;99.90;;;;;;5056514;28;20536;-55
2024/03/06 06:15:03;;;;;;;11.30;8.07;;;7.90;99.90;;;;;;5056417;28;20470;-56
2024/03/06 06:17:30;;;;;;;9.50;7.13;;;7.90;99.90;;;;;;5056407;28;20444;-55
2024/03/06 06:19:57;;;;;;;10.50;8.07;;;7.90;99.90;;;;;;5057224;28;20449;-56
2024/03/06 06:22:28;;;;;;;12.00;7.80;;;8.00;99.90;;;;;;5056304;28;20504;-56
2024/03/06 06:24:55;;;;;;;11.23;7.80;;;8.00;99.90;;;;;;5056143;28;20465;-56
2024/03/06 06:27:22;;;;;;;14.97;7.67;;;7.90;99.90;;;;;;5056241;28;20449;-55
2024/03/06 06:29:49;;;;;;;10.83;7.63;;;7.90;99.90;;;;;;5056368;28;20442;-55
2024/03/06 06:32:16;;;;;;;12.13;7.13;;;7.90;99.90;;;;;;5056084;28;20433;-55
2024/03/06 06:34:42;;;;;;;12.47;7.60;;;7.90;99.90;;;;;;5056065;28;20925;-55
2024/03/06 06:37:09;;;;;;;10.37;7.20;;;7.90;99.90;;;;;;5056339;28;20538;-55
2024/03/06 06:39:37;;;;;;;11.10;7.63;;;7.90;99.90;;;;;;5056005;28;20449;-55
2024/03/06 06:42:04;;;;;;;10.70;7.03;;;8.00;99.90;;;;;;5056061;28;20476;-55
2024/03/06 06:44:31;;;;;;;11.20;8.03;;;8.00;99.90;;;;;;5056866;28;20468;-55
2024/03/06 06:46:58;;;;;;;8.83;6.90;;;8.00;99.90;;;;;;5056721;28;20445;-55
2024/03/06 06:49:25;;;;;;;8.73;7.00;;;8.00;99.90;;;;;;5056356;28;20818;-55
2024/03/06 06:51:52;;;;;;;8.50;7.27;;;8.10;99.90;;;;;;5055841;28;20463;-55
2024/03/06 06:54:18;;;;;;;11.33;8.47;;;8.10;99.90;;;;;;5055613;28;20584;-55
2024/03/06 06:56:47;;;;;;;9.97;7.90;;;8.10;99.90;;;;;;5055760;28;20437;-55
2024/03/06 06:59:13;;;;;;;11.00;7.63;;;8.20;99.90;;;;;;5055610;28;20456;-55
2024/03/06 07:01:41;;;;;;;7.87;6.90;;;8.20;99.90;;;;;;5055209;28;20488;-55
2024/03/06 07:04:08;;;;;;;12.30;7.57;;;8.30;99.90;;;;;;5055004;28;20984;-55
2024/03/06 07:06:35;;;;;;;8.97;6.30;;;8.40;99.90;;;;;;5055664;28;20441;-55
2024/03/06 07:09:02;;;;;;;12.63;6.83;;;8.50;99.90;;;;;;5055471;28;20446;-55
2024/03/06 07:11:28;;;;;;;14.53;6.30;;;8.50;99.90;;;;;;5055205;28;20496;-55
2024/03/06 07:13:56;;;;;;;8.40;6.17;;;8.60;99.90;;;;;;5055023;28;20983;-55
2024/03/06 07:16:23;;;;;;;15.27;6.60;;;8.60;99.90;;;;;;5055460;28;20441;-55
2024/03/06 07:18:50;;;;;;;13.53;6.70;;;8.60;99.90;;;;;;5055201;28;20446;-54
2024/03/06 07:21:17;;;;;;;12.07;6.20;;;8.60;99.90;;;;;;5055061;28;20453;-55
2024/03/06 07:23:44;;;;;;;22.53;7.10;;;8.70;99.90;;;;;;5055271;28;20465;-55
2024/03/06 07:26:11;;;;;;;21.77;7.13;;;8.70;99.90;;;;;;5055362;28;20465;-55
2024/03/06 07:28:38;;;;;;;41.77;8.63;;;8.70;99.90;;;;;;5055056;28;20441;-55
2024/03/06 07:31:06;;;;;;;20.43;8.00;;;8.80;99.90;;;;;;5055244;28;20452;-56
2024/03/06 07:33:37;;;;;;;11.00;5.97;;;8.80;99.90;;;;;;5054974;28;20438;-56
2024/03/06 07:36:05;;;;;;;17.40;6.03;;;8.90;99.90;;;;;;5055354;28;20438;-55
2024/03/06 07:38:31;;;;;;;9.03;5.43;;;9.00;99.90;;;;;;5054927;28;20535;-55
2024/03/06 07:40:58;;;;;;;12.60;5.93;;;9.10;99.90;;;;;;5054924;28;20442;-56
2024/03/06 07:43:26;;;;;;;10.47;6.57;;;9.20;99.90;;;;;;5054865;28;20477;-55
2024/03/06 07:45:53;;;;;;;12.40;5.60;;;9.30;99.90;;;;;;5054602;28;20512;-56
2024/03/06 07:48:21;;;;;;;8.07;5.50;;;9.40;99.90;;;;;;5054423;28;20944;-56
2024/03/06 07:50:48;;;;;;;8.50;6.30;;;9.40;99.90;;;;;;5054498;28;20958;-56
2024/03/06 07:53:16;;;;;;;12.90;5.30;;;9.50;99.90;;;;;;5054208;28;20446;-56
2024/03/06 07:55:42;;;;;;;9.83;6.37;;;9.60;99.90;;;;;;5054516;28;20842;-55
2024/03/06 07:58:09;;;;;;;12.60;5.67;;;9.60;99.90;;;;;;5054615;28;20441;-55
2024/03/06 08:00:36;;;;;;;8.13;5.97;;;9.70;99.90;;;;;;5054511;28;20446;-55
2024/03/06 08:03:03;;;;;;;10.57;6.23;;;9.80;99.90;;;;;;5054359;28;20481;-55
2024/03/06 08:05:33;;;;;;;12.00;5.30;;;9.80;99.90;;;;;;5053952;28;20462;-55
2024/03/06 08:08:00;;;;;;;9.77;5.50;;;9.90;99.90;;;;;;5054319;28;20454;-55
2024/03/06 08:10:27;;;;;;;7.63;5.57;;;9.90;99.90;;;;;;5054219;28;20441;-56
2024/03/06 08:12:53;;;;;;;16.60;5.47;;;9.90;99.90;;;;;;5053700;28;20450;-56
2024/03/06 08:15:20;;;;;;;13.40;6.30;;;10.00;99.90;;;;;;5053955;28;20843;-56
2024/03/06 08:17:47;;;;;;;9.57;5.90;;;10.00;99.90;;;;;;5054233;28;20453;-55
2024/03/06 08:20:14;;;;;;;11.83;7.37;;;10.10;99.90;;;;;;5054145;28;20450;-55
2024/03/06 08:22:43;;;;;;;11.07;5.83;;;10.20;99.90;;;;;;5053708;28;20481;-55
2024/03/06 08:25:11;;;;;;;11.10;6.57;;;10.20;99.90;;;;;;5054086;28;20469;-56
2024/03/06 08:27:39;;;;;;;8.43;6.20;;;10.30;99.90;;;;;;5053997;28;20445;-56
2024/03/06 08:30:08;;;;;;;13.23;6.80;;;10.40;99.90;;;;;;5053975;28;20450;-55
2024/03/06 08:32:37;;;;;;;12.80;6.10;;;10.40;99.90;;;;;;5053832;28;20476;-56
2024/03/06 08:35:05;;;;;;;11.53;5.53;;;10.40;99.90;;;;;;5053479;28;20484;-55
2024/03/06 08:37:32;;;;;;;14.90;7.00;;;10.40;99.90;;;;;;5053737;28;20471;-55
2024/03/06 08:40:00;;;;;;;16.43;7.10;;;10.40;99.90;;;;;;5053498;28;20998;-55
2024/03/06 08:42:27;;;;;;;9.03;6.63;;;10.40;99.90;;;;;;5053736;28;20485;-55
2024/03/06 08:44:54;;;;;;;10.87;5.97;;;10.50;99.90;;;;;;5053602;28;20466;-55
2024/03/06 08:47:21;;;;;;;12.73;6.73;;;10.60;99.90;;;;;;5053531;28;20460;-54
2024/03/06 08:49:48;;;;;;;9.37;6.37;;;10.60;99.90;;;;;;5053478;28;20454;-55
2024/03/06 08:52:15;;;;;;;8.27;5.20;;;10.80;99.90;;;;;;5053567;28;20438;-55
2024/03/06 08:54:42;;;;;;;15.00;5.17;;;10.80;99.90;;;;;;5053377;28;20495;-55
2024/03/06 08:57:11;;;;;;;12.63;5.33;;;11.00;99.90;;;;;;5053543;28;20445;-55
2024/03/06 08:59:38;;;;;;;8.33;4.57;;;11.10;99.90;;;;;;5053758;28;20438;-55
2024/03/06 09:02:14;;;;;;;8.33;5.33;;;11.20;99.90;;;;;;5053533;28;20489;-55
2024/03/06 09:04:41;;;;;;;11.70;6.27;;;11.40;99.90;;;;;;5053188;28;20468;-55
2024/03/06 09:07:08;;;;;;;8.67;7.57;;;11.60;99.90;;;;;;5053462;28;20939;-55
2024/03/06 09:09:36;;;;;;;11.13;8.27;;;11.80;99.90;;;;;;5052911;28;20549;-55
2024/03/06 09:12:04;;;;;;;8.73;6.67;;;11.90;99.90;;;;;;5053016;28;20499;-55
2024/03/06 09:14:33;;;;;;;9.30;7.20;;;12.10;99.90;;;;;;5053012;28;20466;-55
2024/03/06 09:17:00;;;;;;;8.10;7.30;;;12.20;99.90;;;;;;5053135;28;20446;-55
2024/03/06 09:19:26;;;;;;;10.50;6.97;;;12.30;99.90;;;;;;5053299;28;20447;-55
2024/03/06 09:21:53;;;;;;;8.73;7.63;;;12.30;99.90;;;;;;5052851;28;20446;-55
2024/03/06 09:24:21;;;;;;;11.30;7.73;;;12.30;99.80;;;;;;5053379;28;20469;-55
2024/03/06 09:26:49;;;;;;;15.70;9.00;;;12.40;99.70;;;;;;5059258;28;20446;-55
2024/03/06 09:29:16;;;;;;;9.40;8.33;;;12.40;99.50;;;;;;5059605;28;20445;-55
2024/03/06 09:31:44;;;;;;;7.63;6.43;;;12.40;99.30;;;;;;5059658;28;20444;-55
2024/03/06 09:34:12;;;;;;;9.30;7.27;;;12.40;98.90;;;;;;5059210;28;20489;-54
2024/03/06 09:36:39;;;;;;;9.50;6.70;;;12.30;98.80;;;;;;5060451;28;20441;-55
2024/03/06 09:39:07;;;;;;;7.80;6.73;;;12.30;98.80;;;;;;5059372;28;20950;-55
2024/03/06 09:41:34;;;;;;;9.20;6.70;;;12.30;98.70;;;;;;5059675;28;20453;-55
2024/03/06 09:44:01;;;;;;;7.00;6.07;;;12.40;98.70;;;;;;5059735;28;20485;-55
2024/03/06 09:46:29;;;;;;;7.60;6.10;;;12.40;98.60;;;;;;5059336;28;20445;-55
2024/03/06 09:48:57;;;;;;;10.10;7.30;;;12.50;98.50;;;;;;5059246;28;20944;-55
2024/03/06 09:51:24;;;;;;;8.17;7.37;;;12.50;98.30;;;;;;5059784;28;20445;-55
2024/03/06 09:53:52;;;;;;;10.43;9.33;;;12.60;98.50;;;;;;5060484;28;20983;-55
2024/03/06 09:56:20;;;;;;;12.27;9.37;;;12.70;98.70;;;;;;5060261;28;20481;-56
2024/03/06 09:58:47;;;;;;;10.83;9.70;;;12.80;98.90;;;;;;5061092;28;20924;-56
2024/03/06 10:01:16;;;;;;;12.63;10.50;;;12.90;99.00;;;;;;5060010;28;20449;-56
2024/03/06 10:03:43;;;;;;;11.93;10.17;;;13.00;98.80;;;;;;5060055;28;20487;-56
2024/03/06 10:06:11;;;;;;;13.03;11.13;;;13.10;98.50;;;;;;5059311;28;21061;-57
2024/03/06 10:08:42;;;;;;;12.60;10.63;;;13.30;98.20;;;;;;5059574;28;20452;-56
2024/03/06 10:11:09;;;;;;;12.93;10.70;;;13.40;97.80;;;;;;5059225;28;20859;-56
2024/03/06 10:13:37;;;;;;;16.00;13.00;;;13.60;97.70;;;;;;5059443;28;20445;-56
2024/03/06 10:16:08;;;;;;;12.57;11.27;;;13.80;97.40;;;;;;5059176;28;20947;-56
2024/03/06 10:18:35;;;;;;;12.57;10.60;;;14.10;97.40;;;;;;5059360;28;20434;-57
2024/03/06 10:21:02;;;;;;;14.77;9.60;;;14.40;97.00;;;;;;5059459;28;20464;-56
2024/03/06 10:23:30;;;;;;;11.70;10.50;;;14.70;96.50;;;;;;5059217;28;20481;-56
2024/03/06 10:25:57;;;;;;;13.00;9.63;;;15.20;95.80;;;;;;5059056;28;20987;-56
2024/03/06 10:28:25;;;;;;;10.30;9.27;;;15.60;94.70;;;;;;5059391;28;20449;-55
2024/03/06 10:30:53;;;;;;;10.70;9.60;;;16.10;93.10;;;;;;5059193;28;20872;-56
2024/03/06 10:33:20;;;;;;;11.97;9.47;;;16.60;92.30;;;;;;5059682;28;20452;-56
2024/03/06 10:35:48;;;;;;;11.90;10.57;;;17.10;90.80;;;;;;5059205;28;20445;-56
2024/03/06 10:38:16;;;;;;;10.00;8.83;;;17.50;89.60;;;;;;5056188;28;20450;-57
2024/03/06 10:40:45;;;;;;;10.73;9.23;;;18.00;87.20;;;;;;5056069;28;20549;-57
2024/03/06 10:43:12;;;;;;;10.43;9.43;;;18.40;84.40;;;;;;5055941;28;20477;-56
2024/03/06 10:45:48;;;;;;;10.80;9.80;;;18.90;80.40;;;;;;5055576;28;20465;-57
2024/03/06 10:48:15;;;;;;;10.87;9.80;;;19.40;77.80;;;;;;5055962;28;20880;-57
2024/03/06 10:50:44;;;;;;;12.13;9.30;;;19.80;74.20;;;;;;5055416;28;20970;-57
2024/03/06 10:53:12;;;;;;;11.90;10.37;;;20.30;69.70;;;;;;5055465;28;21011;-57
2024/03/06 10:55:39;;;;;;;12.17;10.70;;;20.80;66.10;;;;;;5055666;28;20497;-57
2024/03/06 10:58:09;;;;;;;10.60;9.60;;;21.10;60.10;;;;;;5055934;28;20433;-57
2024/03/06 11:00:38;;;;;;;11.47;10.13;;;21.50;59.30;;;;;;5055648;28;20452;-57
2024/03/06 11:03:07;;;;;;;11.07;9.97;;;22.10;59.20;;;;;;5067865;28;20487;-56
2024/03/06 11:05:35;;;;;;;11.43;10.30;;;22.60;57.00;;;;;;5075482;28;20548;-56
2024/03/06 11:08:03;;;;;;;10.10;9.10;;;23.10;55.90;;;;;;5075491;28;20523;-57
2024/03/06 11:10:33;;;;;;;10.17;9.27;;;23.50;53.50;;;;;;5075422;28;20467;-56
2024/03/06 11:13:02;;;;;;;9.73;8.83;;;23.90;51.10;;;;;;5075549;28;20441;-57
2024/03/06 11:15:30;;;;;;;10.33;9.27;;;24.00;49.80;;;;;;5075304;28;20471;-57
2024/03/06 11:17:57;;;;;;;12.27;11.00;;;23.60;49.70;;;;;;5075272;28;20441;-57
2024/03/06 11:20:25;;;;;;;13.90;11.30;;;23.10;50.50;;;;;;5075339;28;20443;-57
2024/03/06 11:23:11;;;;;;;11.60;10.40;;;22.60;51.10;;;;;;5075418;28;20480;-57
2024/03/06 11:26:10;;;;;;;12.93;11.73;;;22.00;52.10;;;;;;5075208;28;20461;-56
2024/03/06 11:28:40;;;;;;;12.00;10.13;;;21.50;52.10;;;;;;5074854;28;20931;-57
2024/03/06 11:31:11;;;;;;;12.27;10.20;;;21.00;52.80;;;;;;5075114;28;20789;-57
2024/03/06 11:33:39;;;;;;;11.83;10.60;;;20.70;54.00;;;;;;5074873;28;20424;-57
2024/03/06 11:36:18;;;;;;;12.70;11.50;;;20.70;54.70;;;;;;5075339;28;20440;-57
2024/03/06 11:38:48;;;;;;;12.93;11.73;;;20.90;55.20;;;;;;5074674;28;20444;-56
2024/03/06 11:41:15;;;;;;;14.63;12.53;;;21.10;53.80;;;;;;5074948;28;20429;-57
2024/03/06 11:43:46;;;;;;;13.03;11.83;;;20.90;53.20;;;;;;5074750;28;20491;-57
2024/03/06 11:46:17;;;;;;;14.77;13.27;;;20.70;53.80;;;;;;5074574;28;20939;-56
2024/03/06 11:48:45;;;;;;;16.87;15.27;;;20.30;54.60;;;;;;5074435;28;20452;-57
2024/03/06 11:51:12;;;;;;;18.00;16.13;;;20.00;55.60;;;;;;5074540;28;20810;-56
2024/03/06 11:53:41;;;;;;;17.00;14.43;;;19.70;57.20;;;;;;5074396;28;20455;-57
2024/03/06 11:56:08;;;;;;;18.60;16.60;;;19.40;57.60;;;;;;5074627;28;20502;-56
2024/03/06 11:58:35;;;;;;;20.13;17.60;;;19.30;58.50;;;;;;5074580;28;20445;-57
2024/03/06 12:01:02;;;;;;;19.00;16.90;;;19.10;58.80;;;;;;5074536;28;20445;-56
2024/03/06 12:03:31;;;;;;;17.73;15.40;;;19.00;59.10;;;;;;5074313;28;20494;-57
2024/03/06 12:05:58;;;;;;;16.57;14.87;;;18.90;59.50;;;;;;5074383;28;20954;-56
2024/03/06 12:08:25;;;;;;;21.07;18.63;;;18.70;59.90;;;;;;5073565;28;20950;-55
2024/03/06 12:10:55;;;;;;;23.33;20.90;;;18.50;60.50;;;;;;5073965;28;20440;-55
2024/03/06 12:13:22;;;;;;;22.00;19.60;;;18.40;61.40;;;;;;5074207;28;20514;-56
2024/03/06 12:15:49;;;;;;;20.97;18.77;;;18.30;61.50;;;;;;5074111;28;20484;-56
2024/03/06 12:18:18;;;;;;;22.20;19.10;;;18.20;62.10;;;;;;5074325;28;20457;-56
2024/03/06 12:20:46;;;;;;;23.70;21.27;;;18.10;62.50;;;;;;5073744;28;20950;-56
2024/03/06 12:23:22;;;;;;;25.07;20.80;;;18.00;63.00;;;;;;5074067;28;20554;-56
2024/03/06 12:25:50;;;;;;;24.67;21.00;;;18.00;63.30;;;;;;5074069;28;20439;-56
2024/03/06 12:28:17;;;;;;;22.20;19.77;;;17.90;63.40;;;;;;5073729;28;20795;-56
2024/03/06 12:30:45;;;;;;;24.33;21.00;;;17.90;63.20;;;;;;5073831;28;20445;-56
2024/03/06 12:33:14;;;;;;;22.00;19.77;;;17.90;62.80;;;;;;5073889;28;20444;-56
2024/03/06 12:35:41;;;;;;;23.30;20.93;;;17.80;63.20;;;;;;5073501;28;20479;-56
2024/03/06 12:38:18;;;;;;;22.00;19.13;;;17.80;64.00;;;;;;5073828;28;20441;-56
2024/03/06 12:40:45;;;;;;;21.00;18.80;;;17.70;63.90;;;;;;5073618;28;20428;-56